GLD1782 SBBW-SWEK
Flight info
| Callsign | GLD1782 |
|---|---|
| Flight time | N/A |
| Altitude | 5500 |
| Route | 1440S05221W 1402S05218W DCT |
| Aircraft | PA24/L-SDFGIRY/S |
Departure
| Time | 2026-05-07 15:37 |
|---|---|
| Airport | Barra do Garças Airport (SBBW) |
Arrival
| Time | N/A |
|---|---|
| Airport | Canarana Airport (SWEK) |
| Time | Latitude | Longitude | Altitude | Speed | Heading |
|---|---|---|---|---|---|
| 2026-05-07 15:26 | -15.86031 | -52.39289 | 1204 ft | 0 kts | 326° |
| 2026-05-07 15:30 | -15.86030 | -52.39290 | 1177 ft | 0 kts | 325° |
| 2026-05-07 15:30 | -15.86029 | -52.39292 | 1177 ft | 1 kts | 302° |
| 2026-05-07 15:30 | -15.86050 | -52.39259 | 1174 ft | 13 kts | 69° |
| 2026-05-07 15:30 | -15.86032 | -52.39215 | 1174 ft | 6 kts | 94° |
| 2026-05-07 15:31 | -15.86051 | -52.39150 | 1166 ft | 13 kts | 104° |
| 2026-05-07 15:31 | -15.86003 | -52.39071 | 1165 ft | 13 kts | 51° |
| 2026-05-07 15:31 | -15.85945 | -52.38996 | 1164 ft | 12 kts | 49° |
| 2026-05-07 15:31 | -15.85955 | -52.38928 | 1160 ft | 12 kts | 157° |
| 2026-05-07 15:32 | -15.86017 | -52.38980 | 1159 ft | 13 kts | 231° |
| 2026-05-07 15:32 | -15.86086 | -52.39069 | 1161 ft | 18 kts | 231° |
| 2026-05-07 15:32 | -15.86180 | -52.39188 | 1159 ft | 25 kts | 231° |
| 2026-05-07 15:32 | -15.86296 | -52.39203 | 1158 ft | 10 kts | 135° |
| 2026-05-07 15:33 | -15.86298 | -52.39201 | 1158 ft | 0 kts | 123° |
| 2026-05-07 15:34 | -15.86335 | -52.39170 | 1159 ft | 12 kts | 172° |
| 2026-05-07 15:35 | -15.86410 | -52.39243 | 1159 ft | 19 kts | 230° |
| 2026-05-07 15:35 | -15.86511 | -52.39370 | 1156 ft | 27 kts | 230° |
| 2026-05-07 15:35 | -15.86582 | -52.39421 | 1155 ft | 9 kts | 193° |
| 2026-05-07 15:35 | -15.86578 | -52.39455 | 1155 ft | 6 kts | 31° |
| 2026-05-07 15:36 | -15.86571 | -52.39448 | 1155 ft | 0 kts | 52° |
| 2026-05-07 15:36 | -15.86569 | -52.39446 | 1155 ft | 8 kts | 51° |
| 2026-05-07 15:36 | -15.86397 | -52.39229 | 1161 ft | 63 kts | 50° |
| 2026-05-07 15:37 | -15.86128 | -52.38851 | 1312 ft | 69 kts | 51° |
| 2026-05-07 15:37 | -15.85818 | -52.38444 | 1463 ft | 75 kts | 47° |
| 2026-05-07 15:37 | -15.85460 | -52.38052 | 1706 ft | 76 kts | 45° |
| 2026-05-07 15:37 | -15.85058 | -52.37662 | 1886 ft | 84 kts | 39° |
| 2026-05-07 15:38 | -15.84510 | -52.37560 | 2115 ft | 84 kts | 336° |
| 2026-05-07 15:38 | -15.84027 | -52.37951 | 2304 ft | 91 kts | 326° |
| 2026-05-07 15:38 | -15.83586 | -52.38413 | 2517 ft | 89 kts | 322° |
| 2026-05-07 15:38 | -15.83038 | -52.38745 | 2730 ft | 89 kts | 349° |
| 2026-05-07 15:39 | -15.82490 | -52.38926 | 3017 ft | 83 kts | 348° |
| 2026-05-07 15:39 | -15.81896 | -52.38983 | 3236 ft | 86 kts | 6° |
| 2026-05-07 15:39 | -15.81328 | -52.38956 | 3510 ft | 83 kts | 6° |
| 2026-05-07 15:39 | -15.80733 | -52.38910 | 3688 ft | 85 kts | 6° |
| 2026-05-07 15:40 | -15.80155 | -52.38868 | 3913 ft | 84 kts | 5° |
| 2026-05-07 15:40 | -15.79556 | -52.38831 | 4087 ft | 86 kts | 6° |
| 2026-05-07 15:40 | -15.78960 | -52.38790 | 4316 ft | 88 kts | 9° |
| 2026-05-07 15:40 | -15.78335 | -52.38761 | 4492 ft | 88 kts | 6° |
| 2026-05-07 15:41 | -15.77730 | -52.38754 | 4593 ft | 89 kts | 5° |
| 2026-05-07 15:41 | -15.77102 | -52.38727 | 4743 ft | 88 kts | 5° |
| 2026-05-07 15:41 | -15.76488 | -52.38717 | 4879 ft | 90 kts | 2° |
| 2026-05-07 15:41 | -15.75867 | -52.38717 | 5069 ft | 88 kts | 3° |
| 2026-05-07 15:42 | -15.75252 | -52.38689 | 5243 ft | 89 kts | 7° |
| 2026-05-07 15:42 | -15.74636 | -52.38644 | 5410 ft | 88 kts | 8° |
| 2026-05-07 15:42 | -15.74028 | -52.38583 | 5635 ft | 88 kts | 9° |
| 2026-05-07 15:42 | -15.73387 | -52.38508 | 5702 ft | 100 kts | 8° |
| 2026-05-07 15:43 | -15.72635 | -52.38402 | 5674 ft | 118 kts | 11° |
| 2026-05-07 15:43 | -15.71770 | -52.38285 | 5647 ft | 130 kts | 9° |
| 2026-05-07 15:43 | -15.70838 | -52.38255 | 5579 ft | 140 kts | 1° |
| 2026-05-07 15:43 | -15.69843 | -52.38278 | 5573 ft | 144 kts | 1° |
| 2026-05-07 15:44 | -15.68829 | -52.38324 | 5528 ft | 147 kts | 1° |
| 2026-05-07 15:44 | -15.67812 | -52.38316 | 5532 ft | 147 kts | 7° |
| 2026-05-07 15:44 | -15.66799 | -52.38317 | 5530 ft | 146 kts | 3° |
| 2026-05-07 15:44 | -15.65780 | -52.38355 | 5527 ft | 146 kts | 1° |
| 2026-05-07 15:45 | -15.64756 | -52.38302 | 5532 ft | 148 kts | 6° |
| 2026-05-07 15:45 | -15.63725 | -52.38194 | 5524 ft | 149 kts | 7° |
| 2026-05-07 15:45 | -15.62691 | -52.38148 | 5529 ft | 151 kts | 0° |
| 2026-05-07 15:45 | -15.61630 | -52.38171 | 5525 ft | 151 kts | 1° |
| 2026-05-07 15:46 | -15.59556 | -52.38116 | 5510 ft | 147 kts | 7° |
| 2026-05-07 15:46 | -15.58534 | -52.38086 | 5518 ft | 150 kts | 4° |
| 2026-05-07 15:46 | -15.57476 | -52.38012 | 5518 ft | 153 kts | 9° |
| 2026-05-07 15:47 | -15.56426 | -52.37951 | 5517 ft | 153 kts | 2° |
| 2026-05-07 15:47 | -15.55362 | -52.37990 | 5507 ft | 151 kts | 358° |
| 2026-05-07 15:47 | -15.54318 | -52.37978 | 5511 ft | 152 kts | 10° |
| 2026-05-07 15:47 | -15.53282 | -52.37862 | 5506 ft | 147 kts | 5° |
| 2026-05-07 15:48 | -15.52273 | -52.37726 | 5506 ft | 147 kts | 11° |
| 2026-05-07 15:48 | -15.51260 | -52.37607 | 5501 ft | 147 kts | 1° |
| 2026-05-07 15:48 | -15.50228 | -52.37649 | 5496 ft | 147 kts | 4° |
| 2026-05-07 15:48 | -15.49228 | -52.37612 | 5499 ft | 144 kts | 5° |
| 2026-05-07 15:49 | -15.48209 | -52.37571 | 5502 ft | 148 kts | 4° |
| 2026-05-07 15:49 | -15.47184 | -52.37585 | 5503 ft | 149 kts | 2° |
| 2026-05-07 15:49 | -15.46126 | -52.37585 | 5502 ft | 152 kts | 360° |
| 2026-05-07 15:49 | -15.45065 | -52.37659 | 5498 ft | 152 kts | 360° |
| 2026-05-07 15:50 | -15.44019 | -52.37718 | 5505 ft | 151 kts | 4° |
| 2026-05-07 15:50 | -15.42973 | -52.37643 | 5503 ft | 149 kts | 6° |
| 2026-05-07 15:50 | -15.41942 | -52.37550 | 5504 ft | 149 kts | 2° |
| 2026-05-07 15:50 | -15.40894 | -52.37520 | 5500 ft | 149 kts | 8° |
| 2026-05-07 15:51 | -15.39865 | -52.37543 | 5488 ft | 150 kts | 359° |
| 2026-05-07 15:51 | -15.38818 | -52.37573 | 5504 ft | 150 kts | 6° |
| 2026-05-07 15:51 | -15.37795 | -52.37518 | 5512 ft | 148 kts | 8° |
| 2026-05-07 15:51 | -15.36780 | -52.37300 | 5508 ft | 148 kts | 15° |
| 2026-05-07 15:52 | -15.35779 | -52.37112 | 5498 ft | 147 kts | 8° |
| 2026-05-07 15:52 | -15.34752 | -52.36995 | 5501 ft | 149 kts | 10° |
| 2026-05-07 15:52 | -15.33725 | -52.36798 | 5503 ft | 150 kts | 5° |
| 2026-05-07 15:52 | -15.32678 | -52.36838 | 5497 ft | 150 kts | 359° |
| 2026-05-07 15:53 | -15.31654 | -52.36929 | 5501 ft | 148 kts | 359° |
| 2026-05-07 15:53 | -15.30623 | -52.37024 | 5497 ft | 149 kts | 360° |
| 2026-05-07 15:53 | -15.29587 | -52.37058 | 5500 ft | 151 kts | 2° |
| 2026-05-07 15:53 | -15.28531 | -52.37072 | 5499 ft | 150 kts | 1° |
| 2026-05-07 15:54 | -15.27472 | -52.37119 | 5501 ft | 153 kts | 357° |
| 2026-05-07 15:54 | -15.26429 | -52.37253 | 5503 ft | 150 kts | 1° |
| 2026-05-07 15:54 | -15.25387 | -52.37176 | 5495 ft | 149 kts | 9° |
| 2026-05-07 15:54 | -15.24379 | -52.37018 | 5499 ft | 146 kts | 8° |
| 2026-05-07 15:55 | -15.23360 | -52.36902 | 5498 ft | 148 kts | 8° |
| 2026-05-07 15:55 | -15.22328 | -52.36786 | 5489 ft | 150 kts | 7° |
| 2026-05-07 15:55 | -15.21289 | -52.36774 | 5500 ft | 150 kts | 0° |
| 2026-05-07 15:55 | -15.20238 | -52.36845 | 5504 ft | 153 kts | 360° |
| 2026-05-07 15:56 | -15.19177 | -52.36726 | 5501 ft | 151 kts | 10° |
| 2026-05-07 15:56 | -15.18124 | -52.36639 | 5494 ft | 153 kts | 5° |
| 2026-05-07 15:56 | -15.17069 | -52.36648 | 5494 ft | 153 kts | 360° |
| 2026-05-07 15:56 | -15.16003 | -52.36619 | 5492 ft | 153 kts | 5° |
| 2026-05-07 15:57 | -15.14947 | -52.36492 | 5498 ft | 153 kts | 10° |
| 2026-05-07 15:57 | -15.13894 | -52.36355 | 5496 ft | 152 kts | 5° |
| 2026-05-07 15:57 | -15.12835 | -52.36369 | 5491 ft | 153 kts | 360° |
| 2026-05-07 15:57 | -15.11773 | -52.36509 | 5496 ft | 153 kts | 359° |
| 2026-05-07 15:58 | -15.10722 | -52.36499 | 5495 ft | 153 kts | 6° |
| 2026-05-07 15:58 | -15.09653 | -52.36432 | 5491 ft | 154 kts | 4° |
| 2026-05-07 15:58 | -15.08574 | -52.36418 | 5496 ft | 155 kts | 2° |
| 2026-05-07 15:58 | -15.07503 | -52.36352 | 5497 ft | 153 kts | 5° |
| 2026-05-07 15:59 | -15.06455 | -52.36239 | 5491 ft | 152 kts | 11° |
| 2026-05-07 15:59 | -15.05399 | -52.36171 | 5493 ft | 151 kts | 2° |
| 2026-05-07 15:59 | -15.04359 | -52.36171 | 5491 ft | 151 kts | 2° |
| 2026-05-07 15:59 | -15.03306 | -52.36195 | 5492 ft | 151 kts | 0° |
| 2026-05-07 16:00 | -15.02265 | -52.36194 | 5490 ft | 148 kts | 1° |
| 2026-05-07 16:00 | -15.01234 | -52.36286 | 5493 ft | 152 kts | 359° |
| 2026-05-07 16:00 | -15.00178 | -52.36278 | 5488 ft | 151 kts | 5° |
| 2026-05-07 16:00 | -14.99121 | -52.36207 | 5489 ft | 152 kts | 4° |
| 2026-05-07 16:01 | -14.98077 | -52.36204 | 5490 ft | 151 kts | 3° |
| 2026-05-07 16:01 | -14.97033 | -52.36094 | 5491 ft | 149 kts | 7° |
| 2026-05-07 16:01 | -14.95997 | -52.35955 | 5482 ft | 150 kts | 10° |
| 2026-05-07 16:01 | -14.94973 | -52.35763 | 5487 ft | 150 kts | 15° |
| 2026-05-07 16:02 | -14.93952 | -52.35653 | 5486 ft | 151 kts | 1° |
| 2026-05-07 16:02 | -14.92899 | -52.35716 | 5484 ft | 150 kts | 354° |
| 2026-05-07 16:02 | -14.91848 | -52.35849 | 5474 ft | 153 kts | 359° |
| 2026-05-07 16:02 | -14.90795 | -52.35978 | 5486 ft | 151 kts | 0° |
| 2026-05-07 16:03 | -14.89747 | -52.35892 | 5484 ft | 151 kts | 10° |
| 2026-05-07 16:03 | -14.88720 | -52.35760 | 5478 ft | 149 kts | 5° |
| 2026-05-07 16:03 | -14.87686 | -52.35695 | 5482 ft | 147 kts | 11° |
| 2026-05-07 16:03 | -14.86682 | -52.35529 | 5478 ft | 148 kts | 11° |
| 2026-05-07 16:04 | -14.85674 | -52.35323 | 5478 ft | 147 kts | 12° |
| 2026-05-07 16:04 | -14.84645 | -52.35278 | 5476 ft | 149 kts | 357° |
| 2026-05-07 16:04 | -14.83624 | -52.35435 | 5479 ft | 150 kts | 351° |
| 2026-05-07 16:04 | -14.82592 | -52.35618 | 5477 ft | 149 kts | 356° |
| 2026-05-07 16:05 | -14.81563 | -52.35692 | 5482 ft | 148 kts | 1° |
| 2026-05-07 16:05 | -14.80536 | -52.35753 | 5479 ft | 147 kts | 359° |
| 2026-05-07 16:05 | -14.79512 | -52.35848 | 5481 ft | 148 kts | 359° |
| 2026-05-07 16:05 | -14.78482 | -52.35870 | 5476 ft | 147 kts | 360° |
| 2026-05-07 16:06 | -14.77467 | -52.36001 | 5482 ft | 149 kts | 358° |
| 2026-05-07 16:06 | -14.76434 | -52.36023 | 5485 ft | 147 kts | 358° |
| 2026-05-07 16:06 | -14.75409 | -52.36059 | 5478 ft | 147 kts | 359° |
| 2026-05-07 16:06 | -14.74380 | -52.36103 | 5473 ft | 148 kts | 358° |
| 2026-05-07 16:07 | -14.73361 | -52.36189 | 5481 ft | 149 kts | 358° |
| 2026-05-07 16:07 | -14.72320 | -52.36207 | 5480 ft | 150 kts | 4° |
| 2026-05-07 16:07 | -14.71278 | -52.36139 | 5482 ft | 150 kts | 7° |
| 2026-05-07 16:07 | -14.70249 | -52.36037 | 5481 ft | 151 kts | 5° |
| 2026-05-07 16:08 | -14.69192 | -52.35958 | 5482 ft | 152 kts | 6° |
| 2026-05-07 16:08 | -14.68126 | -52.35934 | 5477 ft | 152 kts | 7° |
| 2026-05-07 16:08 | -14.67096 | -52.35729 | 5477 ft | 150 kts | 17° |
| 2026-05-07 16:08 | -14.66082 | -52.35518 | 5473 ft | 149 kts | 12° |
| 2026-05-07 16:09 | -14.65046 | -52.35344 | 5472 ft | 150 kts | 9° |
| 2026-05-07 16:09 | -14.64003 | -52.35328 | 5471 ft | 152 kts | 1° |
| 2026-05-07 16:09 | -14.62965 | -52.35344 | 5473 ft | 149 kts | 3° |
| 2026-05-07 16:09 | -14.61924 | -52.35281 | 5475 ft | 150 kts | 12° |
| 2026-05-07 16:10 | -14.60904 | -52.35077 | 5474 ft | 151 kts | 7° |
| 2026-05-07 16:10 | -14.59851 | -52.34979 | 5472 ft | 150 kts | 7° |
| 2026-05-07 16:10 | -14.58818 | -52.34917 | 5472 ft | 150 kts | 5° |
| 2026-05-07 16:10 | -14.57764 | -52.34846 | 5472 ft | 150 kts | 3° |
| 2026-05-07 16:11 | -14.56717 | -52.34863 | 5470 ft | 153 kts | 359° |
| 2026-05-07 16:11 | -14.55644 | -52.34765 | 5476 ft | 154 kts | 13° |
| 2026-05-07 16:11 | -14.54577 | -52.34660 | 5474 ft | 155 kts | 4° |
| 2026-05-07 16:11 | -14.53503 | -52.34620 | 5464 ft | 154 kts | 7° |
| 2026-05-07 16:12 | -14.52449 | -52.34530 | 5475 ft | 153 kts | 9° |
| 2026-05-07 16:12 | -14.51391 | -52.34426 | 5474 ft | 153 kts | 5° |
| 2026-05-07 16:12 | -14.50308 | -52.34370 | 5468 ft | 156 kts | 6° |
| 2026-05-07 16:12 | -14.49245 | -52.34227 | 5472 ft | 155 kts | 14° |
| 2026-05-07 16:13 | -14.48211 | -52.33929 | 5469 ft | 153 kts | 17° |
| 2026-05-07 16:13 | -14.47173 | -52.33670 | 5469 ft | 153 kts | 14° |
| 2026-05-07 16:13 | -14.46121 | -52.33503 | 5473 ft | 155 kts | 8° |
| 2026-05-07 16:13 | -14.45053 | -52.33469 | 5470 ft | 152 kts | 2° |
| 2026-05-07 16:14 | -14.44351 | -52.33450 | 5469 ft | 151 kts | 4° |
| 2026-05-07 16:14 | -14.43294 | -52.33466 | 5473 ft | 152 kts | 360° |
| 2026-05-07 16:14 | -14.41886 | -52.33517 | 5470 ft | 153 kts | 4° |
| 2026-05-07 16:14 | -14.41169 | -52.33460 | 5475 ft | 153 kts | 5° |
| 2026-05-07 16:15 | -14.40111 | -52.33406 | 5470 ft | 153 kts | 4° |
| 2026-05-07 16:15 | -14.39043 | -52.33355 | 5471 ft | 153 kts | 4° |
| 2026-05-07 16:15 | -14.37997 | -52.33329 | 5466 ft | 151 kts | 8° |
| 2026-05-07 16:15 | -14.36966 | -52.33109 | 5467 ft | 151 kts | 17° |
| 2026-05-07 16:16 | -14.35967 | -52.32809 | 5461 ft | 151 kts | 10° |
| 2026-05-07 16:16 | -14.34918 | -52.32661 | 5466 ft | 153 kts | 7° |
| 2026-05-07 16:16 | -14.33858 | -52.32590 | 5468 ft | 151 kts | 7° |
| 2026-05-07 16:16 | -14.32802 | -52.32473 | 5467 ft | 153 kts | 4° |
| 2026-05-07 16:17 | -14.31737 | -52.32542 | 5470 ft | 156 kts | 356° |
| 2026-05-07 16:17 | -14.30647 | -52.32570 | 5475 ft | 156 kts | 2° |
| 2026-05-07 16:17 | -14.29575 | -52.32588 | 5472 ft | 155 kts | 2° |
| 2026-05-07 16:17 | -14.28489 | -52.32567 | 5472 ft | 156 kts | 9° |
| 2026-05-07 16:18 | -14.27420 | -52.32354 | 5467 ft | 156 kts | 14° |
| 2026-05-07 16:18 | -14.26360 | -52.32191 | 5471 ft | 154 kts | 7° |
| 2026-05-07 16:18 | -14.25274 | -52.32064 | 5470 ft | 157 kts | 9° |
| 2026-05-07 16:18 | -14.24207 | -52.31898 | 5467 ft | 154 kts | 11° |
| 2026-05-07 16:19 | -14.23149 | -52.31715 | 5468 ft | 154 kts | 15° |
| 2026-05-07 16:19 | -14.22109 | -52.31495 | 5468 ft | 155 kts | 10° |
| 2026-05-07 16:19 | -14.21045 | -52.31293 | 5469 ft | 153 kts | 11° |
| 2026-05-07 16:19 | -14.20016 | -52.31051 | 5466 ft | 151 kts | 12° |
| 2026-05-07 16:20 | -14.18976 | -52.30993 | 5465 ft | 150 kts | 1° |
| 2026-05-07 16:20 | -14.17941 | -52.31122 | 5458 ft | 150 kts | 351° |
| 2026-05-07 16:20 | -14.16931 | -52.31395 | 5462 ft | 149 kts | 353° |
| 2026-05-07 16:20 | -14.15906 | -52.31534 | 5471 ft | 153 kts | 1° |
| 2026-05-07 16:21 | -14.14836 | -52.31540 | 5463 ft | 154 kts | 8° |
| 2026-05-07 16:21 | -14.13799 | -52.31345 | 5473 ft | 151 kts | 15° |
| 2026-05-07 16:21 | -14.12755 | -52.31123 | 5469 ft | 154 kts | 17° |
| 2026-05-07 16:21 | -14.11746 | -52.30747 | 5468 ft | 153 kts | 24° |
| 2026-05-07 16:22 | -14.10755 | -52.30403 | 5468 ft | 150 kts | 18° |
| 2026-05-07 16:22 | -14.09735 | -52.30172 | 5460 ft | 150 kts | 8° |
| 2026-05-07 16:22 | -14.08684 | -52.30246 | 5459 ft | 154 kts | 351° |
| 2026-05-07 16:22 | -14.07639 | -52.30460 | 5470 ft | 155 kts | 357° |
| 2026-05-07 16:23 | -14.06556 | -52.30473 | 5469 ft | 155 kts | 7° |
| 2026-05-07 16:23 | -14.05497 | -52.30332 | 5461 ft | 153 kts | 11° |
| 2026-05-07 16:23 | -14.04467 | -52.30066 | 5458 ft | 154 kts | 15° |
| 2026-05-07 16:23 | -14.03408 | -52.29883 | 5464 ft | 154 kts | 11° |
| 2026-05-07 16:24 | -14.02342 | -52.29762 | 5466 ft | 154 kts | 5° |
| 2026-05-07 16:24 | -14.01270 | -52.29692 | 5461 ft | 154 kts | 5° |
| 2026-05-07 16:24 | -14.00211 | -52.29676 | 5465 ft | 154 kts | 360° |
| 2026-05-07 16:24 | -13.99141 | -52.29773 | 5455 ft | 154 kts | 358° |
| 2026-05-07 16:25 | -13.98082 | -52.29814 | 5467 ft | 152 kts | 2° |
| 2026-05-07 16:25 | -13.97021 | -52.29774 | 5467 ft | 151 kts | 8° |
| 2026-05-07 16:25 | -13.95995 | -52.29585 | 5468 ft | 151 kts | 16° |
| 2026-05-07 16:25 | -13.94955 | -52.29380 | 5467 ft | 152 kts | 12° |
| 2026-05-07 16:26 | -13.93913 | -52.29170 | 5467 ft | 152 kts | 13° |
| 2026-05-07 16:26 | -13.92879 | -52.28994 | 5468 ft | 153 kts | 7° |
| 2026-05-07 16:26 | -13.91808 | -52.28965 | 5471 ft | 154 kts | 3° |
| 2026-05-07 16:26 | -13.90738 | -52.29038 | 5468 ft | 154 kts | 352° |
| 2026-05-07 16:27 | -13.89676 | -52.29247 | 5469 ft | 157 kts | 356° |
| 2026-05-07 16:27 | -13.88608 | -52.29204 | 5471 ft | 155 kts | 11° |
| 2026-05-07 16:27 | -13.87535 | -52.29049 | 5470 ft | 155 kts | 7° |
| 2026-05-07 16:27 | -13.86465 | -52.28905 | 5466 ft | 153 kts | 11° |
| 2026-05-07 16:28 | -13.85427 | -52.28711 | 5464 ft | 154 kts | 11° |
| 2026-05-07 16:28 | -13.84361 | -52.28611 | 5464 ft | 153 kts | 6° |
| 2026-05-07 16:28 | -13.83305 | -52.28537 | 5469 ft | 152 kts | 6° |
| 2026-05-07 16:28 | -13.82279 | -52.28389 | 5476 ft | 149 kts | 15° |
| 2026-05-07 16:29 | -13.81255 | -52.28117 | 5369 ft | 154 kts | 19° |
| 2026-05-07 16:29 | -13.80213 | -52.27834 | 5293 ft | 154 kts | 15° |
| 2026-05-07 16:29 | -13.79193 | -52.27509 | 5218 ft | 152 kts | 19° |
| 2026-05-07 16:29 | -13.78189 | -52.27172 | 5074 ft | 154 kts | 21° |
| 2026-05-07 16:30 | -13.77181 | -52.26852 | 5056 ft | 149 kts | 19° |
| 2026-05-07 16:30 | -13.76192 | -52.26575 | 4962 ft | 149 kts | 11° |
| 2026-05-07 16:30 | -13.75177 | -52.26362 | 4866 ft | 147 kts | 16° |
| 2026-05-07 16:30 | -13.74169 | -52.26128 | 4740 ft | 148 kts | 11° |
| 2026-05-07 16:31 | -13.73174 | -52.25875 | 4690 ft | 149 kts | 18° |
| 2026-05-07 16:31 | -13.72201 | -52.25524 | 4580 ft | 147 kts | 13° |
| 2026-05-07 16:31 | -13.71166 | -52.25375 | 4441 ft | 149 kts | 13° |
| 2026-05-07 16:31 | -13.70180 | -52.25127 | 4384 ft | 145 kts | 17° |
| 2026-05-07 16:32 | -13.69208 | -52.24814 | 4287 ft | 148 kts | 18° |
| 2026-05-07 16:32 | -13.68234 | -52.24482 | 4174 ft | 148 kts | 18° |
| 2026-05-07 16:32 | -13.67244 | -52.24192 | 4104 ft | 148 kts | 21° |
| 2026-05-07 16:32 | -13.66267 | -52.23909 | 3929 ft | 146 kts | 5° |
| 2026-05-07 16:33 | -13.65250 | -52.24180 | 3637 ft | 155 kts | 335° |
| 2026-05-07 16:33 | -13.64315 | -52.24698 | 3569 ft | 151 kts | 334° |
| 2026-05-07 16:33 | -13.63324 | -52.25100 | 3237 ft | 157 kts | 349° |
| 2026-05-07 16:33 | -13.62330 | -52.25380 | 3060 ft | 144 kts | 351° |
| 2026-05-07 16:34 | -13.61380 | -52.25652 | 2736 ft | 139 kts | 346° |
| 2026-05-07 16:34 | -13.60456 | -52.25904 | 2447 ft | 135 kts | 352° |
| 2026-05-07 16:34 | -13.59498 | -52.26104 | 1977 ft | 146 kts | 354° |
| 2026-05-07 16:34 | -13.59099 | -52.26170 | 1799 ft | 146 kts | 350° |